Time;durP1;ratioP1;P1;durP2;ratioP2;P2;SDS_P1;SDS_P2;PMS_P1;PMS_P2;Temp;Humidity;BMP_temperature;BMP_pressure;BME280_temperature;BME280_humidity;BME280_pressure;Samples;Min_cycle;Max_cycle;Signal;HPM_P1;HPM_P2
2022/12/27 00:02:11;;;;;;;114.50;55.22;;;;;;;2.37;77.22;95892.41;4998837;28;20116;-81
2022/12/27 00:04:37;;;;;;;113.13;54.60;;;;;;;3.10;77.00;96006.47;4981036;28;20030;-80
2022/12/27 00:07:03;;;;;;;122.28;54.55;;;;;;;2.84;76.88;95964.63;4980564;28;20042;-80
2022/12/27 00:09:28;;;;;;;109.43;54.00;;;;;;;2.43;77.28;95911.75;4998473;28;20062;-80
2022/12/27 00:11:54;;;;;;;103.82;52.67;;;;;;;2.24;76.82;95869.69;4998614;28;20045;-80
2022/12/27 00:14:19;;;;;;;116.28;56.85;;;;;;;2.31;76.91;95857.41;4998499;28;20038;-80
2022/12/27 00:16:45;;;;;;;111.75;55.50;;;;;;;2.48;76.74;95904.88;5002089;28;20058;-80
2022/12/27 00:19:10;;;;;;;124.30;56.75;;;;;;;3.19;76.67;95998.41;5004263;28;20061;-80
2022/12/27 00:21:35;;;;;;;110.53;55.40;;;;;;;2.28;76.66;95859.63;5016820;28;20038;-80
2022/12/27 00:24:03;;;;;;;115.82;56.13;;;;;;;2.62;76.69;95903.03;4984563;28;20037;-81
2022/12/27 00:26:31;;;;;;;113.43;56.63;;;;;;;3.15;76.58;95987.50;4997765;28;20100;-80
2022/12/27 00:28:57;;;;;;;117.32;54.90;;;;;;;3.19;76.17;95999.19;4998134;28;20104;-81
2022/12/27 00:31:25;;;;;;;222.90;105.90;;;;;;;2.50;76.52;95883.75;4997817;28;20034;-81
2022/12/27 00:33:53;;;;;;;158.35;76.82;;;;;;;3.13;76.54;95997.38;4980759;28;20092;-79
2022/12/27 00:36:20;;;;;;;120.75;61.95;;;;;;;3.17;76.63;95992.53;4979900;28;20038;-81
2022/12/27 00:38:46;;;;;;;141.65;65.00;;;;;;;2.98;76.12;95971.44;4997202;28;20468;-81
2022/12/27 00:41:13;;;;;;;145.70;67.05;;;;;;;3.14;76.09;96006.84;4997367;28;20045;-80
2022/12/27 00:43:39;;;;;;;140.32;68.55;;;;;;;2.37;76.36;95892.41;4984625;28;20470;-80
2022/12/27 00:46:06;;;;;;;145.95;65.97;;;;;;;2.43;76.45;95909.13;4979484;28;20038;-80
2022/12/27 00:48:31;;;;;;;136.40;64.47;;;;;;;2.60;76.35;95921.56;5007146;28;20539;-80
2022/12/27 00:51:03;;;;;;;265.15;130.45;;;;;;;3.05;76.09;95995.00;4996287;28;20117;-81
2022/12/27 00:53:29;;;;;;;155.40;73.75;;;;;;;2.72;76.14;95961.84;4997962;28;20035;-81
2022/12/27 00:55:55;;;;;;;171.05;83.43;;;;;;;3.17;75.73;96016.13;4979853;28;20048;-81
2022/12/27 00:58:21;;;;;;;177.32;87.85;;;;;;;3.09;75.46;96025.84;4998227;28;20065;-80
2022/12/27 01:00:47;;;;;;;194.90;90.97;;;;;;;3.06;75.84;96031.47;4997914;28;20050;-81
2022/12/27 01:03:13;;;;;;;192.50;94.38;;;;;;;2.30;76.04;95933.50;4997852;28;20117;-81
2022/12/27 01:05:38;;;;;;;192.50;94.13;;;;;;;1.97;76.17;95873.38;4996027;28;20062;-81
2022/12/27 01:08:04;;;;;;;213.15;101.65;;;;;;;2.69;75.96;95998.91;4996866;28;20096;-81
2022/12/27 01:10:30;;;;;;;217.25;105.50;;;;;;;1.76;76.04;95842.19;4996819;28;20105;-81
2022/12/27 01:12:55;;;;;;;217.45;108.03;;;;;;;2.49;76.40;95971.97;4996483;28;20057;-81
2022/12/27 01:15:20;;;;;;;244.52;110.00;;;;;;;2.12;76.29;95910.59;4996598;28;20034;-81
2022/12/27 01:17:46;;;;;;;220.82;111.03;;;;;;;2.43;76.39;95951.03;4996429;28;20220;-81
2022/12/27 01:20:11;;;;;;;190.10;96.70;;;;;;;2.36;76.33;95955.47;4996919;28;20045;-80
2022/12/27 01:22:37;;;;;;;193.45;94.88;;;;;;;1.57;76.12;95809.81;4996782;28;20117;-81
2022/12/27 01:25:03;;;;;;;194.75;97.00;;;;;;;2.82;76.04;96007.78;4996466;28;20063;-81
2022/12/27 01:27:29;;;;;;;230.80;110.32;;;;;;;1.93;76.02;95867.72;5011471;28;20398;-81
2022/12/27 01:29:54;;;;;;;219.80;113.90;;;;;;;2.81;76.27;96006.16;4996169;28;20110;-79
2022/12/27 01:32:20;;;;;;;236.50;119.00;;;;;;;2.79;76.37;95997.69;4978680;28;20034;-80
2022/12/27 01:34:45;;;;;;;231.00;111.70;;;;;;;2.41;76.48;95948.59;4996354;28;20034;-80
2022/12/27 01:37:11;;;;;;;218.27;111.53;;;;;;;2.22;76.53;95910.97;4979145;28;20050;-80
2022/12/27 01:39:36;;;;;;;221.32;109.55;;;;;;;2.50;76.34;95978.00;4979410;28;20779;-80
2022/12/27 01:44:52;;;;;;;179.10;91.55;;;;;;;2.57;76.44;95990.06;4996702;28;20120;-80
2022/12/27 01:47:25;;;;;;;;;;;;;;;2.66;76.62;96001.16;4996586;28;20417;-81
2022/12/27 01:49:56;;;;;;;188.13;84.28;;;;;;;2.58;77.09;95996.94;4994501;28;19924;-80
2022/12/27 01:52:23;;;;;;;;;;;;;;;2.61;76.90;95988.66;4996811;28;20034;-80
2022/12/27 01:54:49;;;;;;;180.77;86.05;;;;;;;1.25;76.87;95767.00;4996239;28;19924;-80
2022/12/27 01:57:15;;;;;;;172.73;88.60;;;;;;;2.22;77.04;95925.84;4996584;28;20062;-80
2022/12/27 01:59:41;;;;;;;172.73;87.03;;;;;;;1.77;76.90;95862.91;4995636;28;20125;-80
2022/12/27 02:02:07;;;;;;;174.05;84.70;;;;;;;1.88;77.13;95883.22;4978320;28;20039;-80
2022/12/27 02:04:33;;;;;;;167.32;86.97;;;;;;;2.12;76.90;95896.69;4978141;28;20054;-80
2022/12/27 02:06:59;;;;;;;167.63;82.90;;;;;;;1.99;76.90;95873.94;4995498;28;20041;-80
2022/12/27 02:09:35;;;;;;;171.20;87.18;;;;;;;1.96;76.27;95884.84;4995361;28;20065;-80
2022/12/27 02:12:04;;;;;;;168.77;86.95;;;;;;;1.38;76.45;95777.44;4995547;28;20039;-80
2022/12/27 02:14:29;;;;;;;167.88;85.32;;;;;;;2.62;76.19;95979.78;4995656;28;20038;-80
2022/12/27 02:16:57;;;;;;;152.27;80.20;;;;;;;2.52;77.07;95982.00;4983507;28;20437;-80
2022/12/27 02:19:31;;;;;;;164.00;81.15;;;;;;;2.64;76.86;95993.50;4995543;28;20070;-80
2022/12/27 02:24:01;;;;;;;163.75;84.25;;;;;;;2.66;76.70;95988.84;4995825;28;20061;-80
2022/12/27 02:25:20;;;;;;;163.63;83.57;;;;;;;2.69;76.59;95998.91;4995724;28;20137;-81
2022/12/27 02:27:48;;;;;;;168.13;83.13;;;;;;;2.69;76.63;95990.25;4995311;28;20108;-81
2022/12/27 02:30:14;;;;;;;167.23;86.30;;;;;;;2.68;76.39;96001.72;4995489;28;20756;-81
2022/12/27 02:33:03;;;;;;;170.40;86.97;;;;;;;2.68;76.35;96001.72;4978248;28;20544;-81
2022/12/27 02:35:37;;;;;;;173.63;86.05;;;;;;;2.54;76.54;95977.38;4977536;28;20038;-84
2022/12/27 02:38:08;;;;;;;166.77;84.60;;;;;;;2.48;76.23;95965.09;4973565;28;20435;-84
2022/12/27 02:55:15;;;;;;;142.45;68.32;;;;;;;2.00;76.12;95899.09;4991900;28;20068;-82
2022/12/27 02:57:49;;;;;;;163.50;79.40;;;;;;;2.59;76.19;95995.13;4974492;28;20121;-82
2022/12/27 03:03:35;;;;;;;189.48;96.68;;;;;;;2.50;76.83;95988.47;4991682;28;20138;-82
2022/12/27 03:06:40;;;;;;;241.70;118.90;;;;;;;2.48;76.62;95999.16;4973956;28;20042;-83
2022/12/27 03:18:19;;;;;;;224.57;106.60;;;;;;;1.67;76.14;95870.38;4991627;28;20065;-82
2022/12/27 03:26:20;;;;;;;225.55;107.07;;;;;;;1.66;75.71;95891.47;4991534;28;20049;-82
2022/12/27 03:34:39;;;;;;;223.57;106.10;;;;;;;1.48;75.61;95864.09;4995718;28;20104;-82
2022/12/27 03:40:07;;;;;;;;;;;;;;;2.42;75.82;95999.16;4996105;28;20140;-80
2022/12/27 03:46:32;;;;;;;186.82;94.85;;;;;;;1.42;76.12;95851.03;4981392;28;20041;-81
2022/12/27 03:48:13;;;;;;;202.07;98.80;;;;;;;1.49;75.97;95865.72;4995303;28;20481;-82
2022/12/27 03:50:45;;;;;;;209.43;101.85;;;;;;;2.33;76.00;96007.22;4978100;28;20041;-82
2022/12/27 03:53:22;;;;;;;206.32;97.90;;;;;;;2.31;75.84;96006.59;4995556;28;20042;-82
2022/12/27 03:55:48;;;;;;;205.32;102.40;;;;;;;1.84;75.73;95947.41;4978242;28;20046;-82
2022/12/27 03:58:13;;;;;;;197.88;99.32;;;;;;;1.74;75.84;95912.19;4996608;28;20061;-83
2022/12/27 04:00:39;;;;;;;203.25;98.65;;;;;;;1.46;75.71;95881.00;4982043;28;20034;-82
2022/12/27 04:03:04;;;;;;;201.07;95.53;;;;;;;2.20;75.83;96001.97;4996115;28;20042;-82
2022/12/27 04:05:30;;;;;;;204.27;97.03;;;;;;;1.36;75.73;95868.34;4996305;28;20042;-82
2022/12/27 04:35:14;;;;;;;188.00;95.68;;;;;;;2.24;76.01;96025.91;4976335;28;20163;-82
2022/12/27 04:37:40;;;;;;;193.43;96.22;;;;;;;1.57;75.85;95927.47;4994610;28;20117;-82
2022/12/27 04:56:38;;;;;;;209.88;99.65;;;;;;;1.59;75.71;95937.72;4993747;28;20065;-82
2022/12/27 05:02:02;;;;;;;208.32;97.38;;;;;;;2.19;75.69;96051.91;4994532;28;20169;-82
2022/12/27 05:04:29;;;;;;;191.40;92.13;;;;;;;2.09;75.73;96056.69;5009065;28;20504;-82
2022/12/27 05:06:55;;;;;;;186.15;90.75;;;;;;;1.80;75.61;95997.69;4977730;28;20504;-83
2022/12/27 05:14:48;;;;;;;203.65;98.30;;;;;;;1.41;76.20;95910.34;4993459;28;20049;-82
2022/12/27 05:17:14;;;;;;;192.65;94.20;;;;;;;0.49;76.24;95778.72;4992258;28;20066;-81
2022/12/27 05:19:39;;;;;;;186.98;95.18;;;;;;;0.83;76.45;95817.78;4976118;28;20596;-81
2022/12/27 05:27:32;;;;;;;195.85;94.38;;;;;;;1.34;76.29;95911.34;4993646;28;20429;-81
2022/12/27 05:29:58;;;;;;;198.20;93.70;;;;;;;1.47;76.63;95925.22;4975950;28;20034;-81
2022/12/27 05:32:23;;;;;;;192.90;93.35;;;;;;;1.36;76.81;95894.47;4993625;28;20046;-81
2022/12/27 05:34:48;;;;;;;187.57;94.88;;;;;;;1.47;76.54;95927.84;4993479;28;20041;-82
2022/12/27 05:37:14;;;;;;;198.13;92.43;;;;;;;1.40;76.64;95905.31;4970234;28;20070;-81
2022/12/27 05:39:39;;;;;;;198.45;92.72;;;;;;;1.21;77.51;95882.56;4974821;28;20042;-82
2022/12/27 05:42:05;;;;;;;184.10;87.97;;;;;;;1.10;77.43;95865.66;4991928;28;20026;-82
2022/12/27 05:44:30;;;;;;;179.15;86.07;;;;;;;1.12;77.17;95861.06;4975547;28;20034;-81
2022/12/27 05:46:56;;;;;;;202.32;93.22;;;;;;;1.61;77.44;95949.59;4974956;28;20046;-82
2022/12/27 05:49:22;;;;;;;208.45;94.45;;;;;;;0.99;77.44;95874.88;4975449;28;20034;-82
2022/12/27 05:51:47;;;;;;;214.52;107.10;;;;;;;1.08;78.61;95915.47;4972173;28;20422;-82
2022/12/27 05:54:13;;;;;;;218.57;111.47;;;;;;;1.83;78.17;96026.09;4972719;28;20430;-82
2022/12/27 05:56:38;;;;;;;231.27;112.07;;;;;;;0.91;77.23;95877.69;4954543;28;20359;-82
2022/12/27 05:59:04;;;;;;;221.07;111.20;;;;;;;1.32;76.93;95931.63;4959604;28;20038;-82
2022/12/27 06:01:29;;;;;;;224.25;113.15;;;;;;;1.83;76.83;96010.41;4975111;28;20072;-82
2022/12/27 06:03:55;;;;;;;228.25;108.97;;;;;;;1.39;76.93;95959.38;4972281;28;20031;-82
2022/12/27 06:06:20;;;;;;;222.25;106.72;;;;;;;1.13;76.60;95913.09;4990950;28;20038;-82
2022/12/27 06:08:46;;;;;;;203.07;102.22;;;;;;;1.46;76.20;95951.56;4958609;28;20097;-83
2022/12/27 06:11:15;;;;;;;194.07;94.15;;;;;;;1.68;76.20;96001.91;4975538;28;20035;-83
2022/12/27 06:13:42;;;;;;;182.52;90.97;;;;;;;1.52;76.41;95972.53;4993057;28;20048;-82
2022/12/27 06:16:10;;;;;;;185.88;89.28;;;;;;;2.04;76.06;96041.63;4993448;28;20068;-82
2022/12/27 06:18:37;;;;;;;164.55;81.90;;;;;;;2.05;76.28;96047.66;4993279;28;20116;-82
2022/12/27 06:21:33;;;;;;;178.07;91.57;;;;;;;1.22;76.20;95936.44;4986260;28;20043;-82
2022/12/27 06:23:58;;;;;;;174.35;90.32;;;;;;;1.29;76.42;95951.16;4985496;28;20049;-83
2022/12/27 06:26:26;;;;;;;177.50;87.82;;;;;;;2.03;76.11;96060.94;4993264;28;20074;-81
2022/12/27 06:28:54;;;;;;;176.38;90.10;;;;;;;1.21;76.08;95929.59;4974945;28;20101;-82
2022/12/27 06:31:20;;;;;;;178.77;88.30;;;;;;;1.48;76.40;95973.09;4972393;28;20042;-81
2022/12/27 06:33:47;;;;;;;190.10;95.13;;;;;;;1.48;76.25;95952.97;4957104;28;20030;-82
2022/12/27 06:36:15;;;;;;;190.57;94.78;;;;;;;2.08;76.73;96050.66;4975175;28;20045;-81
2022/12/27 06:38:41;;;;;;;186.10;94.97;;;;;;;1.38;76.13;95941.28;4974767;28;20061;-82
2022/12/27 06:41:10;;;;;;;201.48;98.43;;;;;;;0.81;76.24;95840.69;4992437;28;20046;-82
2022/12/27 06:43:35;;;;;;;193.30;93.88;;;;;;;1.86;76.31;96020.44;4975470;28;20030;-82
2022/12/27 06:46:03;;;;;;;198.75;96.13;;;;;;;1.29;76.60;95929.44;4975260;28;20044;-82
2022/12/27 06:48:29;;;;;;;196.93;97.15;;;;;;;1.52;76.53;95963.88;4985281;28;20073;-82
2022/12/27 06:50:55;;;;;;;214.50;104.35;;;;;;;1.42;76.56;95935.50;4961561;28;20067;-82
2022/12/27 06:53:20;;;;;;;228.85;104.18;;;;;;;1.36;77.06;95945.94;4975777;28;20066;-82
2022/12/27 06:55:46;;;;;;;229.50;108.82;;;;;;;1.87;76.96;96001.94;4992935;28;20129;-82
2022/12/27 06:58:12;;;;;;;196.90;100.45;;;;;;;2.20;77.15;96048.28;4991964;28;20081;-82
2022/12/27 07:00:39;;;;;;;195.55;97.25;;;;;;;2.19;77.09;96055.31;4992515;28;20045;-82
2022/12/27 07:03:05;;;;;;;204.63;98.10;;;;;;;1.59;77.34;95966.50;4974429;28;20077;-82
2022/12/27 07:05:30;;;;;;;180.98;88.55;;;;;;;2.25;77.23;96049.28;4974579;28;20034;-82
2022/12/27 07:07:56;;;;;;;167.70;84.05;;;;;;;1.53;77.52;95934.88;4973692;28;20045;-82
2022/12/27 07:10:21;;;;;;;169.32;80.57;;;;;;;2.32;77.33;96050.09;4956562;28;20134;-82
2022/12/27 07:12:47;;;;;;;159.98;82.28;;;;;;;2.42;77.71;96046.28;4990833;28;20117;-82
2022/12/27 07:15:12;;;;;;;160.13;80.93;;;;;;;2.36;77.49;96016.47;4987428;28;20129;-82
2022/12/27 07:17:38;;;;;;;174.02;84.15;;;;;;;1.85;77.63;95928.09;4987431;28;20108;-82
2022/12/27 07:20:05;;;;;;;161.60;78.40;;;;;;;2.65;77.51;96036.19;4974237;28;20038;-81
2022/12/27 07:22:30;;;;;;;162.48;75.10;;;;;;;2.71;77.58;96044.03;4991632;28;20027;-82
2022/12/27 07:24:56;;;;;;;157.50;77.70;;;;;;;2.51;77.75;95990.09;4974239;28;20096;-82
2022/12/27 07:27:21;;;;;;;142.35;72.75;;;;;;;2.28;77.53;95973.00;4992122;28;20086;-82
2022/12/27 07:29:47;;;;;;;146.77;72.28;;;;;;;2.32;77.36;95949.81;4974523;28;20038;-82
2022/12/27 07:32:12;;;;;;;139.73;66.82;;;;;;;2.05;77.39;95914.22;4986887;28;20038;-82
2022/12/27 07:34:38;;;;;;;149.02;70.80;;;;;;;2.10;77.20;95902.13;4966222;28;20535;-81
2022/12/27 07:37:03;;;;;;;148.82;69.55;;;;;;;3.04;76.84;96053.69;4990069;28;20038;-82
2022/12/27 07:39:28;;;;;;;130.27;64.60;;;;;;;1.77;76.49;95841.97;5005662;28;20034;-81
2022/12/27 07:41:54;;;;;;;127.40;58.00;;;;;;;3.06;76.58;96043.78;4977887;28;20042;-82
2022/12/27 07:44:19;;;;;;;118.35;59.08;;;;;;;2.17;76.40;95896.88;4991224;28;20082;-82
2022/12/27 07:46:45;;;;;;;123.18;61.90;;;;;;;2.98;76.59;96007.31;4973713;28;20546;-81
2022/12/27 07:49:10;;;;;;;115.88;57.92;;;;;;;3.12;76.32;96023.81;4992238;28;20034;-81
2022/12/27 07:51:36;;;;;;;94.88;46.45;;;;;;;2.59;76.48;95940.94;4991195;28;20477;-81
2022/12/27 07:54:01;;;;;;;91.63;47.63;;;;;;;3.18;76.50;96034.28;4989767;28;20080;-81
2022/12/27 07:56:28;;;;;;;84.32;42.70;;;;;;;2.14;76.12;95865.88;4973305;28;20038;-81
2022/12/27 07:58:56;;;;;;;72.55;37.45;;;;;;;3.00;76.19;95992.19;4973736;28;20034;-81
2022/12/27 08:01:24;;;;;;;73.78;35.97;;;;;;;3.29;76.11;96044.13;4991694;28;20054;-82
2022/12/27 08:03:50;;;;;;;63.70;34.50;;;;;;;2.75;76.22;95949.34;4991362;28;20069;-82
2022/12/27 08:06:20;;;;;;;65.07;34.17;;;;;;;3.36;76.03;96041.47;4991088;28;20444;-82
2022/12/27 08:08:46;;;;;;;64.07;33.35;;;;;;;3.32;76.25;96048.16;4981365;28;20054;-82
2022/12/27 08:11:11;;;;;;;57.78;31.80;;;;;;;2.75;76.33;95947.50;4973426;28;20038;-82
2022/12/27 08:13:37;;;;;;;69.18;32.92;;;;;;;3.45;76.31;96050.72;4990167;28;20165;-82
2022/12/27 08:16:03;;;;;;;60.05;31.58;;;;;;;2.56;76.46;95896.00;4991032;28;20041;-82
2022/12/27 08:18:28;;;;;;;60.55;32.50;;;;;;;3.37;76.13;96028.16;4993338;28;20116;-82
2022/12/27 08:20:54;;;;;;;58.45;30.10;;;;;;;3.26;76.31;96009.66;5009650;28;20112;-82
2022/12/27 08:23:20;;;;;;;58.17;31.33;;;;;;;2.54;76.53;95887.53;4995027;28;20090;-82
2022/12/27 08:25:46;;;;;;;52.15;28.23;;;;;;;2.21;76.17;95843.94;4977122;28;20045;-82
2022/12/27 08:28:14;;;;;;;56.50;26.92;;;;;;;2.56;76.32;95882.91;4977645;28;20420;-82
2022/12/27 08:30:42;;;;;;;48.08;24.38;;;;;;;3.53;77.03;96047.88;4994262;28;20038;-82
2022/12/27 08:33:08;;;;;;;52.25;26.17;;;;;;;3.56;76.91;96052.69;4992799;28;20057;-82
2022/12/27 08:35:41;;;;;;;48.03;24.27;;;;;;;2.41;76.69;95845.69;4994958;28;20097;-83
2022/12/27 08:38:07;;;;;;;53.60;26.77;;;;;;;2.99;76.79;95946.84;4994843;28;20053;-81
2022/12/27 08:40:32;;;;;;;53.80;26.77;;;;;;;3.64;77.04;96018.38;4994919;28;20053;-82
2022/12/27 08:42:58;;;;;;;60.25;27.52;;;;;;;3.43;76.94;95984.59;4994050;28;20030;-82
2022/12/27 08:45:24;;;;;;;60.15;29.35;;;;;;;3.80;76.76;96038.06;4978225;28;20038;-83
2022/12/27 08:47:49;;;;;;;60.78;30.38;;;;;;;3.75;77.01;96015.06;4995398;28;20030;-83
2022/12/27 08:50:15;;;;;;;64.38;30.55;;;;;;;3.29;77.25;95939.25;4977763;28;20567;-83
2022/12/27 08:52:40;;;;;;;60.72;30.25;;;;;;;2.87;76.69;95862.06;4994470;28;20046;-83
2022/12/27 08:55:06;;;;;;;57.85;30.90;;;;;;;4.07;76.62;96028.22;4976989;28;20046;-83
2022/12/27 08:57:31;;;;;;;63.10;29.80;;;;;;;3.80;76.80;95996.91;4977214;28;20416;-83
2022/12/27 08:59:57;;;;;;;67.93;32.05;;;;;;;3.12;76.40;95856.91;4994879;28;20050;-83
2022/12/27 09:02:22;;;;;;;64.43;33.60;;;;;;;4.19;76.71;96011.59;4994513;28;20039;-83
2022/12/27 09:04:48;;;;;;;82.07;37.92;;;;;;;3.53;76.54;95895.75;4994596;28;20452;-83
2022/12/27 09:07:13;;;;;;;75.53;34.58;;;;;;;4.31;76.53;96019.56;4976598;28;20034;-83
2022/12/27 09:09:39;;;;;;;71.78;35.25;;;;;;;3.93;76.91;95951.38;4994376;28;20038;-82
2022/12/27 09:12:04;;;;;;;70.43;37.25;;;;;;;3.59;76.69;95878.34;4994463;28;20062;-83
2022/12/27 09:14:30;;;;;;;75.03;36.92;;;;;;;3.77;76.13;95887.13;4995426;28;20041;-82
2022/12/27 09:16:55;;;;;;;86.68;40.80;;;;;;;3.44;76.64;95836.69;4995293;28;20054;-83
2022/12/27 09:19:20;;;;;;;76.78;38.90;;;;;;;4.21;76.41;95943.09;4982248;28;20069;-82
2022/12/27 09:21:46;;;;;;;85.00;43.78;;;;;;;3.70;75.82;95836.50;4995857;28;20106;-82
2022/12/27 09:24:12;;;;;;;83.05;41.95;;;;;;;4.25;76.10;95912.78;4994622;28;20035;-82
2022/12/27 09:26:38;;;;;;;85.35;43.63;;;;;;;3.87;75.69;95831.53;4994232;28;20042;-81
2022/12/27 09:29:03;;;;;;;90.13;43.40;;;;;;;4.94;75.92;95978.19;4993399;28;20121;-82
2022/12/27 09:31:29;;;;;;;80.90;41.97;;;;;;;4.88;75.52;95951.97;4975973;28;20552;-82
2022/12/27 09:33:55;;;;;;;85.43;43.28;;;;;;;5.09;75.47;95969.91;4994084;28;20038;-82
2022/12/27 09:36:23;;;;;;;73.15;38.90;;;;;;;5.14;75.08;95983.19;4977683;28;20034;-83
2022/12/27 09:38:51;;;;;;;75.80;36.90;;;;;;;5.18;74.73;95978.31;4994105;28;20040;-83
2022/12/27 09:41:53;;;;;;;64.07;33.30;;;;;;;5.19;74.84;95969.41;4993081;28;20042;-83
2022/12/27 09:44:22;;;;;;;70.32;33.95;;;;;;;5.28;74.38;95968.06;4976554;28;20432;-83
2022/12/27 09:47:00;;;;;;;111.90;53.72;;;;;;;5.28;74.63;95971.50;4981215;28;20140;-83
2022/12/27 09:49:32;;;;;;;123.30;60.45;;;;;;;5.05;74.76;95922.22;4994213;28;20129;-81
2022/12/27 09:52:15;;;;;;;113.47;55.33;;;;;;;5.34;74.40;95962.72;4993285;28;20041;-81
2022/12/27 09:54:43;;;;;;;109.30;55.55;;;;;;;5.38;73.98;95950.75;4975522;28;20113;-82
2022/12/27 09:57:17;;;;;;;106.68;55.33;;;;;;;5.21;74.20;95949.75;4992783;28;20034;-82
2022/12/27 09:59:48;;;;;;;134.32;64.70;;;;;;;5.03;73.82;95934.00;4992633;28;20042;-82
2022/12/27 10:02:22;;;;;;;134.55;69.13;;;;;;;4.36;74.10;95819.31;4974939;28;20117;-82
2022/12/27 10:04:49;;;;;;;130.95;67.57;;;;;;;4.34;74.00;95790.69;4992167;28;20042;-82
2022/12/27 10:07:56;;;;;;;125.53;69.70;;;;;;;5.60;73.33;95955.53;4980495;28;20042;-83
2022/12/27 10:10:56;;;;;;;124.35;68.20;;;;;;;5.71;73.42;95931.09;4974495;28;20070;-83
2022/12/27 10:13:48;;;;;;;133.27;68.47;;;;;;;5.78;73.43;95926.53;4974662;28;20034;-82
2022/12/27 10:16:26;;;;;;;117.18;66.28;;;;;;;5.81;72.97;95924.25;4978904;28;20038;-83
2022/12/27 10:19:09;;;;;;;131.95;69.20;;;;;;;6.44;73.83;95921.03;4974274;28;20085;-82
2022/12/27 10:21:38;;;;;;;132.15;66.35;;;;;;;7.35;71.35;95916.88;4992358;28;20125;-82
2022/12/27 10:24:24;;;;;;;126.10;64.28;;;;;;;8.27;68.67;95927.19;5007336;28;20519;-82
2022/12/27 10:26:53;;;;;;;105.72;56.53;;;;;;;8.96;65.78;95920.56;4991954;28;20126;-82
2022/12/27 10:29:22;;;;;;;98.05;53.50;;;;;;;9.32;63.04;95882.09;4991884;28;20022;-82
2022/12/27 10:31:48;;;;;;;93.50;48.90;;;;;;;9.39;60.71;95824.44;4992547;28;20103;-83
2022/12/27 10:34:16;;;;;;;85.82;46.95;;;;;;;9.82;60.00;95846.59;4974664;28;20033;-83
2022/12/27 10:36:43;;;;;;;81.10;42.13;;;;;;;10.38;58.81;95924.72;4974906;28;20034;-82
2022/12/27 10:39:17;;;;;;;77.63;43.85;;;;;;;10.46;58.09;95903.03;4991826;28;20034;-82
2022/12/27 10:42:07;;;;;;;82.88;42.13;;;;;;;11.08;57.19;95926.22;4974123;28;20022;-82
2022/12/27 10:44:33;;;;;;;70.43;41.15;;;;;;;10.40;56.25;95835.91;4974565;28;20039;-82
2022/12/27 10:46:58;;;;;;;79.13;42.50;;;;;;;10.76;56.42;95836.09;4974036;28;20112;-82
2022/12/27 10:49:29;;;;;;;88.15;46.97;;;;;;;11.40;54.87;95918.13;4991744;28;20148;-82
2022/12/27 10:52:05;;;;;;;88.35;45.35;;;;;;;10.60;54.68;95827.28;4992004;28;20038;-82
2022/12/27 10:54:30;;;;;;;92.25;46.78;;;;;;;10.89;54.81;95834.84;4974660;28;20034;-82
2022/12/27 10:57:19;;;;;;;93.10;48.08;;;;;;;11.33;53.77;95857.31;4991589;28;20455;-82
2022/12/27 10:59:44;;;;;;;101.20;52.00;;;;;;;11.40;53.85;95868.47;4981206;28;20042;-82
2022/12/27 11:02:18;;;;;;;92.53;51.63;;;;;;;11.70;54.04;95891.66;4974038;28;20421;-82
2022/12/27 11:04:59;;;;;;;97.75;46.75;;;;;;;11.14;54.13;95832.25;5006600;28;20074;-82
2022/12/27 11:07:29;;;;;;;;;;;;;;;11.37;54.45;95898.19;4992164;28;20042;-82
2022/12/27 11:10:30;;;;;;;85.25;49.08;;;;;;;11.30;55.03;95904.81;5002988;28;19924;-82
2022/12/27 11:13:01;;;;;;;91.63;50.17;;;;;;;10.95;55.39;95908.09;4933958;28;20441;-82
2022/12/27 11:15:28;;;;;;;;;;;;;;;10.90;55.70;95894.81;4991793;28;20105;-81
2022/12/27 11:18:01;;;;;;;85.07;48.72;;;;;;;10.65;56.38;95864.44;4990633;28;20308;-82
2022/12/27 11:20:36;;;;;;;99.53;50.97;;;;;;;10.90;55.67;95900.94;4991393;28;20066;-82
2022/12/27 11:23:04;;;;;;;94.53;51.17;;;;;;;10.77;56.84;95896.06;4973486;28;20512;-82
2022/12/27 11:25:30;;;;;;;90.15;48.15;;;;;;;10.70;57.49;95856.50;4973787;28;20065;-82
2022/12/27 11:28:19;;;;;;;83.40;47.53;;;;;;;10.92;57.90;95882.06;4973002;28;20073;-82
2022/12/27 11:30:56;;;;;;;89.22;45.42;;;;;;;10.49;57.66;95815.00;4990761;28;20062;-82
2022/12/27 11:33:38;;;;;;;85.40;47.13;;;;;;;10.87;57.98;95882.06;4990986;28;20039;-82
2022/12/27 11:36:06;;;;;;;86.90;47.00;;;;;;;10.46;58.00;95802.25;4973649;28;20424;-82
2022/12/27 11:38:33;;;;;;;101.50;48.75;;;;;;;11.12;57.56;95895.47;4973178;28;20037;-82
2022/12/27 11:41:14;;;;;;;91.93;49.30;;;;;;;10.84;57.88;95839.06;4973416;28;20034;-82
2022/12/27 11:43:55;;;;;;;92.40;48.20;;;;;;;10.48;58.24;95784.25;4990923;28;20027;-82
2022/12/27 11:47:10;;;;;;;80.57;45.30;;;;;;;11.29;57.99;95889.97;4977529;28;20420;-82
2022/12/27 11:49:55;;;;;;;76.05;42.22;;;;;;;11.47;57.74;95884.16;4986182;28;20756;-82
2022/12/27 11:52:40;;;;;;;78.68;42.22;;;;;;;11.63;57.27;95877.81;4973150;28;20034;-82
2022/12/27 11:55:20;;;;;;;79.95;39.63;;;;;;;11.19;57.15;95833.09;4994709;28;20045;-82
2022/12/27 11:58:14;;;;;;;73.35;40.63;;;;;;;11.79;56.05;95876.81;4977884;28;20101;-82
2022/12/27 12:00:51;;;;;;;74.57;40.17;;;;;;;11.81;56.27;95877.38;4982586;28;20022;-82
2022/12/27 12:03:35;;;;;;;72.82;39.33;;;;;;;11.84;55.62;95882.13;4977346;28;20018;-82
2022/12/27 12:06:45;;;;;;;83.50;40.88;;;;;;;11.85;55.34;95882.94;4994536;28;20026;-83
2022/12/27 12:09:11;;;;;;;74.25;39.33;;;;;;;11.82;55.46;95891.47;4933858;29;20363;-83
2022/12/27 12:11:43;;;;;;;73.35;37.65;;;;;;;10.65;56.60;95771.59;4964947;28;20046;-83
2022/12/27 12:14:47;;;;;;;62.42;35.22;;;;;;;11.35;56.54;95888.91;4976864;28;20062;-82
2022/12/27 12:17:44;;;;;;;67.22;35.95;;;;;;;11.19;57.12;95883.53;4988629;28;20116;-82
2022/12/27 12:20:37;;;;;;;67.38;37.35;;;;;;;10.94;58.25;95878.13;4994512;28;20050;-82
2022/12/27 12:23:41;;;;;;;79.65;38.70;;;;;;;10.52;59.10;95856.94;4993839;28;20563;-82
2022/12/27 12:26:17;;;;;;;64.25;36.10;;;;;;;10.52;59.85;95874.72;4976706;28;20034;-83
2022/12/27 12:29:20;;;;;;;72.50;36.85;;;;;;;10.44;60.75;95884.75;4994114;28;20064;-82
2022/12/27 12:32:07;;;;;;;64.05;35.33;;;;;;;10.37;61.31;95889.47;4990803;28;20085;-82
2022/12/27 12:34:54;;;;;;;69.57;35.15;;;;;;;10.37;61.02;95893.97;4974686;28;20596;-82
2022/12/27 12:37:49;;;;;;;70.63;33.70;;;;;;;9.72;61.35;95791.66;4993816;28;20034;-82
2022/12/27 12:40:33;;;;;;;64.13;32.70;;;;;;;9.95;61.60;95839.00;4994193;28;20034;-82
2022/12/27 12:43:14;;;;;;;72.35;35.42;;;;;;;10.32;61.36;95896.56;5008514;28;20042;-82
2022/12/27 12:45:51;;;;;;;65.63;34.17;;;;;;;10.28;62.02;95901.59;4993665;28;20060;-82
2022/12/27 12:48:43;;;;;;;61.47;34.85;;;;;;;10.22;62.04;95907.88;4976772;28;20035;-82
2022/12/27 12:51:26;;;;;;;72.95;37.92;;;;;;;10.19;62.15;95899.66;4957338;28;20185;-82
2022/12/27 12:53:58;;;;;;;77.35;41.15;;;;;;;10.21;61.84;95898.34;4985160;28;20433;-82
2022/12/27 12:56:32;;;;;;;;;;;;;;;10.24;62.13;95897.81;4993916;28;20523;-83
2022/12/27 12:59:04;;;;;;;84.85;41.38;;;;;;;10.15;62.64;95909.91;4993161;28;19924;-82
2022/12/27 13:01:54;;;;;;;73.25;35.55;;;;;;;10.21;62.79;95914.25;4993582;28;20069;-82
2022/12/27 13:04:49;;;;;;;64.07;33.10;;;;;;;9.86;62.60;95864.34;5007259;28;20121;-82
2022/12/27 13:07:39;;;;;;;79.82;34.72;;;;;;;10.15;62.95;95915.22;4993180;28;20455;-82
2022/12/27 13:10:31;;;;;;;69.10;35.70;;;;;;;9.91;63.83;95896.22;4975857;28;20041;-82
2022/12/27 13:13:13;;;;;;;62.58;31.65;;;;;;;10.07;64.48;95927.06;4993224;28;20038;-83
2022/12/27 13:16:31;;;;;;;54.58;30.05;;;;;;;9.77;64.91;95884.41;4993314;28;20174;-82
2022/12/27 13:19:05;;;;;;;63.22;32.90;;;;;;;10.07;65.20;95929.72;4968576;28;20536;-82
2022/12/27 13:21:52;;;;;;;54.92;29.75;;;;;;;10.07;64.90;95936.88;4993245;28;20092;-82
2022/12/27 13:24:23;;;;;;;57.67;28.40;;;;;;;10.12;65.26;95938.78;4993417;28;20121;-82